Belmar-Farmingdale, NJ

12:25 AM EDT on May 24, 2017 (GMT -0400)
Allaire

Weather History for KBLM - October, 2013

Change the Weather History Date:

Wednesday, October 9, 2013

  Actual Average Record
Temperature  
Mean Temperature 58 °F -  
Max Temperature 62 °F 63 °F 84 °F (2011)
Min Temperature 55 °F 48 °F 30 °F (2001)
Degree Days  
Heating Degree Days 6    
Growing Degree Days 8 (Base 50)    
Moisture  
Dew Point 46 °F    
Average Humidity 60    
Maximum Humidity 67    
Minimum Humidity 45    
Precipitation  
Precipitation 0.00 in - - ()
Sea Level Pressure  
Sea Level Pressure 30.31 in    
Wind  
Wind Speed 12 mph (ENE)    
Max Wind Speed 21 mph    
Max Gust Speed 30 mph    
Visibility 10 miles    
Events      
Averages and records for this station are not official NWS values.
T = Trace of Precipitation, MM = Missing Value Source: NWS Daily Summary

Daily Weather History Graph

Daily Weather History Graph

Search for Another Location

Airport or City:

Trip Planner

Search our weather history database for the weather conditions in past years. The results will help you decide how hot, cold, wet, or windy it might be!

Date:

Astronomy

Oct. 09, 2013 Rise Set
Actual Time 7:01 AM EDT 6:25 PM EDT
Civil Twilight 6:33 AM EDT 6:52 PM EDT
Nautical Twilight 6:02 AM EDT 7:24 PM EDT
Astronomical Twilight 5:30 AM EDT 7:55 PM EDT
Moon 11:54 AM EDT (10/9) 9:57 PM EDT (10/9)
Length of Visible Light 12h 18m
Length of Day
11h 24m
Waxing Crescent, 25% of the Moon is Illuminated
Oct 9
Waxing Crescent
Oct 11
First Quarter
Oct 18
Full
Oct 26
Last Quarter
Nov 3
New

Hourly Weather History & Observations

Time (EDT) Temp. Dew Point Humidity Pressure Visibility Wind Dir Wind Speed Gust Speed Precip Events Conditions
12:15 AM 55.4 °F 44.6 °F 67% 30.30 in 10.0 mi North 4.6 mph - N/A   Clear
12:35 AM 57.2 °F 44.6 °F 63% 30.30 in 10.0 mi NNE 5.8 mph - N/A   Clear
12:55 AM 57.2 °F 44.6 °F 63% 30.30 in 10.0 mi NNE 6.9 mph - N/A   Clear
1:15 AM 59.0 °F 44.6 °F 59% 30.30 in 10.0 mi NE 8.1 mph - N/A   Clear
1:35 AM 59.0 °F 44.6 °F 59% 30.31 in 10.0 mi NE 10.4 mph - N/A   Clear
1:55 AM 59.0 °F 44.6 °F 59% 30.31 in 10.0 mi NE 9.2 mph 16.1 mph N/A   Clear
2:15 AM 60.8 °F 44.6 °F 55% 30.31 in 10.0 mi NE 12.7 mph 16.1 mph N/A   Clear
2:35 AM 60.8 °F 46.4 °F 59% 30.31 in 10.0 mi NE 9.2 mph - N/A   Clear
2:55 AM 60.8 °F 46.4 °F 59% 30.30 in 10.0 mi NE 11.5 mph - N/A   Clear
3:15 AM 60.8 °F 48.2 °F 63% 30.29 in 10.0 mi ENE 12.7 mph 17.3 mph N/A   Clear
3:35 AM 60.8 °F 48.2 °F 63% 30.29 in 10.0 mi ENE 15.0 mph - N/A   Mostly Cloudy
3:55 AM 60.8 °F 46.4 °F 59% 30.29 in 10.0 mi ENE 13.8 mph 23.0 mph N/A   Overcast
4:15 AM 60.8 °F 42.8 °F 52% 30.30 in 10.0 mi ENE 11.5 mph 21.9 mph N/A   Mostly Cloudy
4:35 AM 60.8 °F 39.2 °F 45% 30.30 in 10.0 mi ENE 11.5 mph 19.6 mph N/A   Partly Cloudy
4:55 AM 59.0 °F 39.2 °F 48% 30.30 in 10.0 mi ENE 11.5 mph 18.4 mph N/A   Clear
5:15 AM 59.0 °F 39.2 °F 48% 30.30 in 10.0 mi ENE 13.8 mph 19.6 mph N/A   Clear
5:35 AM 59.0 °F 39.2 °F 48% 30.30 in 10.0 mi NE 11.5 mph 19.6 mph N/A   Clear
5:55 AM 57.2 °F 41.0 °F 55% 30.30 in 10.0 mi ENE 12.7 mph 18.4 mph N/A   Clear
6:15 AM 57.2 °F 42.8 °F 59% 30.30 in 10.0 mi NE 10.4 mph - N/A   Clear
6:35 AM 57.2 °F 44.6 °F 63% 30.31 in 10.0 mi ENE 10.4 mph - N/A   Partly Cloudy
6:55 AM 59.0 °F 46.4 °F 63% 30.31 in 10.0 mi ENE 9.2 mph 18.4 mph N/A   Mostly Cloudy
7:15 AM 59.0 °F 46.4 °F 63% 30.31 in 10.0 mi ENE 13.8 mph 17.3 mph N/A   Overcast
7:35 AM 59.0 °F 46.4 °F 63% 30.32 in 10.0 mi ENE 11.5 mph - N/A   Mostly Cloudy
7:55 AM 59.0 °F 48.2 °F 67% 30.33 in 10.0 mi ENE 12.7 mph 21.9 mph N/A   Overcast
8:15 AM 59.0 °F 48.2 °F 67% 30.34 in 10.0 mi ENE 11.5 mph 16.1 mph N/A   Mostly Cloudy
8:35 AM 59.0 °F 48.2 °F 67% 30.35 in 10.0 mi NE 13.8 mph 19.6 mph N/A   Mostly Cloudy
8:55 AM 59.0 °F 48.2 °F 67% 30.35 in 10.0 mi ENE 11.5 mph - N/A   Overcast
9:15 AM 59.0 °F 48.2 °F 67% 30.35 in 10.0 mi NE 15.0 mph 21.9 mph N/A   Overcast
9:35 AM 59.0 °F 48.2 °F 67% 30.36 in 10.0 mi NE 13.8 mph - N/A   Overcast
9:55 AM 59.0 °F 48.2 °F 67% 30.35 in 10.0 mi ENE 18.4 mph 25.3 mph N/A   Overcast
10:15 AM 59.0 °F 46.4 °F 63% 30.35 in 10.0 mi ENE 13.8 mph 23.0 mph N/A   Mostly Cloudy
10:35 AM 60.8 °F 46.4 °F 59% 30.36 in 10.0 mi ENE 17.3 mph 27.6 mph N/A   Overcast
10:55 AM 60.8 °F 46.4 °F 59% 30.36 in 10.0 mi ENE 19.6 mph 24.2 mph N/A   Overcast
11:15 AM 59.0 °F 46.4 °F 63% 30.36 in 10.0 mi ENE 16.1 mph 23.0 mph N/A   Overcast
11:35 AM 60.8 °F 46.4 °F 59% 30.36 in 10.0 mi ENE 16.1 mph 23.0 mph N/A   Overcast
11:55 AM 60.8 °F 46.4 °F 59% 30.35 in 10.0 mi ENE 17.3 mph 24.2 mph N/A   Overcast
12:15 PM 60.8 °F 46.4 °F 59% 30.35 in 10.0 mi ENE 19.6 mph 24.2 mph N/A   Overcast
12:35 PM 60.8 °F 48.2 °F 63% 30.35 in 10.0 mi ENE 13.8 mph 20.7 mph N/A   Overcast
12:55 PM 60.8 °F 48.2 °F 63% 30.35 in 10.0 mi NE 16.1 mph 25.3 mph N/A   Overcast
1:15 PM 60.8 °F 48.2 °F 63% 30.34 in 10.0 mi ENE 19.6 mph 24.2 mph N/A   Overcast
1:35 PM 60.8 °F 48.2 °F 63% 30.33 in 10.0 mi NE 20.7 mph 27.6 mph N/A   Overcast
1:55 PM 62.6 °F 46.4 °F 55% 30.33 in 10.0 mi ENE 17.3 mph 26.5 mph N/A   Overcast
2:15 PM 62.6 °F 46.4 °F 55% 30.33 in 10.0 mi ENE 20.7 mph 27.6 mph N/A   Mostly Cloudy
2:35 PM 60.8 °F 46.4 °F 59% 30.33 in 10.0 mi ENE 19.6 mph 28.8 mph N/A   Mostly Cloudy
2:55 PM 60.8 °F 46.4 °F 59% 30.33 in 10.0 mi ENE 19.6 mph 25.3 mph N/A   Mostly Cloudy
3:15 PM 60.8 °F 46.4 °F 59% 30.33 in 10.0 mi ENE 17.3 mph 29.9 mph N/A   Mostly Cloudy
3:35 PM 60.8 °F 46.4 °F 59% 30.33 in 10.0 mi ENE 13.8 mph 27.6 mph N/A   Overcast
3:55 PM 60.8 °F 46.4 °F 59% 30.33 in 10.0 mi East 19.6 mph 27.6 mph N/A   Mostly Cloudy
4:15 PM 60.8 °F 46.4 °F 59% 30.32 in 10.0 mi ENE 16.1 mph 24.2 mph N/A   Mostly Cloudy
4:35 PM 60.8 °F 46.4 °F 59% 30.31 in 10.0 mi ENE 13.8 mph 23.0 mph N/A   Mostly Cloudy
4:55 PM 60.8 °F 48.2 °F 63% 30.31 in 10.0 mi East 17.3 mph 23.0 mph N/A   Overcast
5:15 PM 60.8 °F 48.2 °F 63% 30.31 in 10.0 mi ENE 12.7 mph 17.3 mph N/A   Overcast
5:35 PM 60.8 °F 46.4 °F 59% 30.31 in 10.0 mi ENE 18.4 mph 24.2 mph N/A   Mostly Cloudy
5:55 PM 60.8 °F 46.4 °F 59% 30.31 in 10.0 mi ENE 11.5 mph 24.2 mph N/A   Mostly Cloudy
6:15 PM 60.8 °F 48.2 °F 63% 30.31 in 10.0 mi East 15.0 mph 23.0 mph N/A   Mostly Cloudy
6:35 PM 60.8 °F 46.4 °F 59% 30.31 in 10.0 mi East 17.3 mph 25.3 mph N/A   Scattered Clouds
6:55 PM 60.8 °F 46.4 °F 59% 30.30 in 10.0 mi ENE 16.1 mph 24.2 mph N/A   Scattered Clouds
7:15 PM 60.8 °F 46.4 °F 59% 30.29 in 10.0 mi ENE 16.1 mph 23.0 mph N/A   Scattered Clouds
7:35 PM 60.8 °F 46.4 °F 59% 30.28 in 10.0 mi ENE 18.4 mph 23.0 mph N/A   Scattered Clouds
7:55 PM 60.8 °F 46.4 °F 59% 30.28 in 10.0 mi ENE 13.8 mph 23.0 mph N/A   Partly Cloudy
8:15 PM 60.8 °F 46.4 °F 59% 30.28 in 10.0 mi ENE 12.7 mph 19.6 mph N/A   Scattered Clouds
8:35 PM 60.8 °F 46.4 °F 59% 30.28 in 10.0 mi ENE 16.1 mph 24.2 mph N/A   Scattered Clouds
8:55 PM 59.0 °F 46.4 °F 63% 30.28 in 10.0 mi ENE 16.1 mph 24.2 mph N/A   Mostly Cloudy
9:15 PM 59.0 °F 46.4 °F 63% 30.28 in 10.0 mi ENE 15.0 mph 23.0 mph N/A   Mostly Cloudy
9:35 PM 59.0 °F 46.4 °F 63% 30.28 in 10.0 mi ENE 15.0 mph 23.0 mph N/A   Mostly Cloudy
9:55 PM 59.0 °F 46.4 °F 63% 30.28 in 10.0 mi ENE 17.3 mph 21.9 mph N/A   Mostly Cloudy
10:15 PM 59.0 °F 46.4 °F 63% 30.28 in 10.0 mi ENE 13.8 mph 25.3 mph N/A   Scattered Clouds
10:35 PM 59.0 °F 46.4 °F 63% 30.28 in 10.0 mi ENE 11.5 mph - N/A   Scattered Clouds
10:55 PM 59.0 °F 48.2 °F 67% 30.27 in 10.0 mi ENE 16.1 mph 21.9 mph N/A   Mostly Cloudy
11:15 PM 59.0 °F 46.4 °F 63% 30.26 in 10.0 mi NE 18.4 mph 25.3 mph N/A   Mostly Cloudy
11:35 PM 59.0 °F 46.4 °F 63% 30.25 in 10.0 mi ENE 17.3 mph 24.2 mph N/A   Overcast
11:55 PM 59.0 °F 46.4 °F 63% 30.25 in 10.0 mi ENE 15.0 mph 21.9 mph N/A   Mostly Cloudy